sensor_id;sensor_type;location;lat;lon;timestamp;P1;durP1;ratioP1;P2;durP2;ratioP2
6095;SDS011;25081;42.698;23.298;2024-02-15T00:00:36;10.82;;;7.53;;
6095;SDS011;25081;42.698;23.298;2024-02-15T00:02:45;10.60;;;7.97;;
6095;SDS011;25081;42.698;23.298;2024-02-15T00:04:56;10.85;;;7.87;;
6095;SDS011;25081;42.698;23.298;2024-02-15T00:07:07;10.68;;;8.45;;
6095;SDS011;25081;42.698;23.298;2024-02-15T00:09:16;11.30;;;8.10;;
6095;SDS011;25081;42.698;23.298;2024-02-15T00:11:28;11.08;;;7.55;;
6095;SDS011;25081;42.698;23.298;2024-02-15T00:13:37;12.00;;;7.78;;
6095;SDS011;25081;42.698;23.298;2024-02-15T00:15:47;12.90;;;8.45;;
6095;SDS011;25081;42.698;23.298;2024-02-15T00:17:56;11.12;;;7.15;;
6095;SDS011;25081;42.698;23.298;2024-02-15T00:20:06;9.68;;;7.47;;
6095;SDS011;25081;42.698;23.298;2024-02-15T00:22:16;11.35;;;7.67;;
6095;SDS011;25081;42.698;23.298;2024-02-15T00:24:26;11.15;;;8.13;;
6095;SDS011;25081;42.698;23.298;2024-02-15T00:26:35;10.28;;;7.72;;
6095;SDS011;25081;42.698;23.298;2024-02-15T00:28:45;10.45;;;8.68;;
6095;SDS011;25081;42.698;23.298;2024-02-15T00:30:54;11.18;;;7.85;;
6095;SDS011;25081;42.698;23.298;2024-02-15T00:33:04;11.65;;;8.95;;
6095;SDS011;25081;42.698;23.298;2024-02-15T00:35:13;10.78;;;7.70;;
6095;SDS011;25081;42.698;23.298;2024-02-15T00:37:22;10.40;;;7.33;;
6095;SDS011;25081;42.698;23.298;2024-02-15T00:39:33;10.88;;;7.40;;
6095;SDS011;25081;42.698;23.298;2024-02-15T00:41:42;6.90;;;5.35;;
6095;SDS011;25081;42.698;23.298;2024-02-15T00:43:52;11.00;;;7.80;;
6095;SDS011;25081;42.698;23.298;2024-02-15T00:46:02;10.28;;;7.67;;
6095;SDS011;25081;42.698;23.298;2024-02-15T00:48:11;13.65;;;7.37;;
6095;SDS011;25081;42.698;23.298;2024-02-15T00:50:20;14.18;;;7.37;;
6095;SDS011;25081;42.698;23.298;2024-02-15T00:52:30;13.62;;;8.35;;
6095;SDS011;25081;42.698;23.298;2024-02-15T00:54:39;10.53;;;6.53;;
6095;SDS011;25081;42.698;23.298;2024-02-15T00:56:48;11.97;;;8.18;;
6095;SDS011;25081;42.698;23.298;2024-02-15T00:58:58;8.30;;;6.62;;
6095;SDS011;25081;42.698;23.298;2024-02-15T01:01:08;12.88;;;7.37;;
6095;SDS011;25081;42.698;23.298;2024-02-15T01:03:18;15.83;;;7.70;;
6095;SDS011;25081;42.698;23.298;2024-02-15T01:05:27;11.57;;;8.10;;
6095;SDS011;25081;42.698;23.298;2024-02-15T01:07:37;10.95;;;7.37;;
6095;SDS011;25081;42.698;23.298;2024-02-15T01:09:47;11.30;;;6.90;;
6095;SDS011;25081;42.698;23.298;2024-02-15T01:11:56;12.75;;;7.72;;
6095;SDS011;25081;42.698;23.298;2024-02-15T01:14:06;10.43;;;6.95;;
6095;SDS011;25081;42.698;23.298;2024-02-15T01:16:23;12.33;;;7.58;;
6095;SDS011;25081;42.698;23.298;2024-02-15T01:18:33;11.38;;;7.92;;
6095;SDS011;25081;42.698;23.298;2024-02-15T01:20:43;12.18;;;7.85;;
6095;SDS011;25081;42.698;23.298;2024-02-15T01:22:52;13.48;;;7.67;;
6095;SDS011;25081;42.698;23.298;2024-02-15T01:25:02;13.72;;;7.65;;
6095;SDS011;25081;42.698;23.298;2024-02-15T01:27:12;10.28;;;7.35;;
6095;SDS011;25081;42.698;23.298;2024-02-15T01:29:21;10.28;;;7.35;;
6095;SDS011;25081;42.698;23.298;2024-02-15T01:31:31;10.48;;;7.15;;
6095;SDS011;25081;42.698;23.298;2024-02-15T01:33:40;12.88;;;7.37;;
6095;SDS011;25081;42.698;23.298;2024-02-15T01:35:49;12.63;;;7.67;;
6095;SDS011;25081;42.698;23.298;2024-02-15T01:37:58;15.85;;;7.70;;
6095;SDS011;25081;42.698;23.298;2024-02-15T01:40:08;9.68;;;6.92;;
6095;SDS011;25081;42.698;23.298;2024-02-15T01:42:18;11.33;;;7.08;;
6095;SDS011;25081;42.698;23.298;2024-02-15T01:44:27;10.78;;;6.80;;
6095;SDS011;25081;42.698;23.298;2024-02-15T01:46:36;10.50;;;7.58;;
6095;SDS011;25081;42.698;23.298;2024-02-15T01:48:46;11.50;;;8.40;;
6095;SDS011;25081;42.698;23.298;2024-02-15T01:50:55;11.20;;;8.08;;
6095;SDS011;25081;42.698;23.298;2024-02-15T01:53:04;13.32;;;8.13;;
6095;SDS011;25081;42.698;23.298;2024-02-15T01:55:22;10.50;;;7.50;;
6095;SDS011;25081;42.698;23.298;2024-02-15T01:57:32;9.30;;;7.00;;
6095;SDS011;25081;42.698;23.298;2024-02-15T01:59:42;11.45;;;7.80;;
6095;SDS011;25081;42.698;23.298;2024-02-15T02:01:54;11.63;;;7.75;;
6095;SDS011;25081;42.698;23.298;2024-02-15T02:04:03;12.47;;;8.38;;
6095;SDS011;25081;42.698;23.298;2024-02-15T02:06:13;9.95;;;6.90;;
6095;SDS011;25081;42.698;23.298;2024-02-15T02:08:22;12.20;;;8.10;;
6095;SDS011;25081;42.698;23.298;2024-02-15T02:10:32;11.48;;;8.08;;
6095;SDS011;25081;42.698;23.298;2024-02-15T02:12:41;13.13;;;8.45;;
6095;SDS011;25081;42.698;23.298;2024-02-15T02:14:50;11.28;;;7.67;;
6095;SDS011;25081;42.698;23.298;2024-02-15T02:17:11;11.15;;;7.95;;
6095;SDS011;25081;42.698;23.298;2024-02-15T02:19:21;11.03;;;8.05;;
6095;SDS011;25081;42.698;23.298;2024-02-15T02:21:30;13.00;;;8.43;;
6095;SDS011;25081;42.698;23.298;2024-02-15T02:23:40;14.40;;;9.40;;
6095;SDS011;25081;42.698;23.298;2024-02-15T02:25:49;11.95;;;8.23;;
6095;SDS011;25081;42.698;23.298;2024-02-15T02:27:59;12.73;;;8.43;;
6095;SDS011;25081;42.698;23.298;2024-02-15T02:30:13;12.70;;;8.78;;
6095;SDS011;25081;42.698;23.298;2024-02-15T02:32:23;12.80;;;8.70;;
6095;SDS011;25081;42.698;23.298;2024-02-15T02:34:32;15.93;;;8.78;;
6095;SDS011;25081;42.698;23.298;2024-02-15T02:36:44;15.50;;;9.05;;
6095;SDS011;25081;42.698;23.298;2024-02-15T02:38:53;13.18;;;7.97;;
6095;SDS011;25081;42.698;23.298;2024-02-15T02:41:04;12.20;;;8.25;;
6095;SDS011;25081;42.698;23.298;2024-02-15T02:43:14;12.18;;;8.25;;
6095;SDS011;25081;42.698;23.298;2024-02-15T02:45:23;10.80;;;8.08;;
6095;SDS011;25081;42.698;23.298;2024-02-15T02:47:32;13.32;;;8.85;;
6095;SDS011;25081;42.698;23.298;2024-02-15T02:49:41;14.00;;;8.60;;
6095;SDS011;25081;42.698;23.298;2024-02-15T02:51:51;11.57;;;8.38;;
6095;SDS011;25081;42.698;23.298;2024-02-15T02:54:00;14.28;;;9.00;;
6095;SDS011;25081;42.698;23.298;2024-02-15T02:56:09;11.60;;;8.23;;
6095;SDS011;25081;42.698;23.298;2024-02-15T02:58:18;14.65;;;9.30;;
6095;SDS011;25081;42.698;23.298;2024-02-15T03:00:28;14.58;;;8.23;;
6095;SDS011;25081;42.698;23.298;2024-02-15T03:02:37;16.93;;;8.88;;
6095;SDS011;25081;42.698;23.298;2024-02-15T03:04:46;15.48;;;8.95;;
6095;SDS011;25081;42.698;23.298;2024-02-15T03:06:56;13.93;;;9.03;;
6095;SDS011;25081;42.698;23.298;2024-02-15T03:09:05;14.70;;;8.55;;
6095;SDS011;25081;42.698;23.298;2024-02-15T03:11:15;15.75;;;8.75;;
6095;SDS011;25081;42.698;23.298;2024-02-15T03:13:24;15.60;;;9.90;;
6095;SDS011;25081;42.698;23.298;2024-02-15T03:15:34;14.30;;;9.45;;
6095;SDS011;25081;42.698;23.298;2024-02-15T03:17:47;13.00;;;8.83;;
6095;SDS011;25081;42.698;23.298;2024-02-15T03:19:54;11.95;;;8.48;;
6095;SDS011;25081;42.698;23.298;2024-02-15T03:22:03;14.55;;;9.63;;
6095;SDS011;25081;42.698;23.298;2024-02-15T03:24:15;13.85;;;8.88;;
6095;SDS011;25081;42.698;23.298;2024-02-15T03:26:30;14.80;;;10.10;;
6095;SDS011;25081;42.698;23.298;2024-02-15T03:28:39;12.15;;;9.28;;
6095;SDS011;25081;42.698;23.298;2024-02-15T03:30:48;17.55;;;9.23;;
6095;SDS011;25081;42.698;23.298;2024-02-15T03:32:58;16.73;;;10.55;;
6095;SDS011;25081;42.698;23.298;2024-02-15T03:35:07;21.77;;;11.65;;
6095;SDS011;25081;42.698;23.298;2024-02-15T03:37:19;12.58;;;8.95;;
6095;SDS011;25081;42.698;23.298;2024-02-15T03:39:29;14.60;;;9.78;;
6095;SDS011;25081;42.698;23.298;2024-02-15T03:41:38;16.55;;;9.35;;
6095;SDS011;25081;42.698;23.298;2024-02-15T03:43:48;12.55;;;8.98;;
6095;SDS011;25081;42.698;23.298;2024-02-15T03:46:00;15.48;;;9.75;;
6095;SDS011;25081;42.698;23.298;2024-02-15T03:48:09;18.40;;;10.50;;
6095;SDS011;25081;42.698;23.298;2024-02-15T03:50:18;18.95;;;11.15;;
6095;SDS011;25081;42.698;23.298;2024-02-15T03:52:28;13.72;;;9.30;;
6095;SDS011;25081;42.698;23.298;2024-02-15T03:54:37;17.05;;;9.95;;
6095;SDS011;25081;42.698;23.298;2024-02-15T03:56:47;14.95;;;10.28;;
6095;SDS011;25081;42.698;23.298;2024-02-15T03:58:57;16.73;;;10.20;;
6095;SDS011;25081;42.698;23.298;2024-02-15T04:01:06;14.65;;;9.38;;
6095;SDS011;25081;42.698;23.298;2024-02-15T04:03:15;14.38;;;8.63;;
6095;SDS011;25081;42.698;23.298;2024-02-15T04:05:25;14.68;;;10.28;;
6095;SDS011;25081;42.698;23.298;2024-02-15T04:07:34;12.68;;;9.95;;
6095;SDS011;25081;42.698;23.298;2024-02-15T04:09:43;17.42;;;9.80;;
6095;SDS011;25081;42.698;23.298;2024-02-15T04:11:54;13.55;;;8.78;;
6095;SDS011;25081;42.698;23.298;2024-02-15T04:14:06;14.95;;;9.38;;
6095;SDS011;25081;42.698;23.298;2024-02-15T04:16:15;17.27;;;9.95;;
6095;SDS011;25081;42.698;23.298;2024-02-15T04:18:24;17.80;;;9.25;;
6095;SDS011;25081;42.698;23.298;2024-02-15T04:20:33;25.80;;;13.58;;
6095;SDS011;25081;42.698;23.298;2024-02-15T04:22:42;15.65;;;11.80;;
6095;SDS011;25081;42.698;23.298;2024-02-15T04:24:51;20.10;;;12.98;;
6095;SDS011;25081;42.698;23.298;2024-02-15T04:27:01;16.55;;;11.40;;
6095;SDS011;25081;42.698;23.298;2024-02-15T04:29:10;15.15;;;9.30;;
6095;SDS011;25081;42.698;23.298;2024-02-15T04:31:19;16.10;;;10.15;;
6095;SDS011;25081;42.698;23.298;2024-02-15T04:33:29;13.40;;;9.13;;
6095;SDS011;25081;42.698;23.298;2024-02-15T04:35:38;17.05;;;9.45;;
6095;SDS011;25081;42.698;23.298;2024-02-15T04:37:47;16.05;;;8.93;;
6095;SDS011;25081;42.698;23.298;2024-02-15T04:39:58;15.03;;;7.20;;
6095;SDS011;25081;42.698;23.298;2024-02-15T04:42:07;12.65;;;7.65;;
6095;SDS011;25081;42.698;23.298;2024-02-15T04:44:17;20.60;;;12.07;;
6095;SDS011;25081;42.698;23.298;2024-02-15T04:46:26;16.62;;;10.65;;
6095;SDS011;25081;42.698;23.298;2024-02-15T04:48:35;18.62;;;9.28;;
6095;SDS011;25081;42.698;23.298;2024-02-15T04:50:45;14.30;;;9.05;;
6095;SDS011;25081;42.698;23.298;2024-02-15T04:52:54;17.02;;;10.18;;
6095;SDS011;25081;42.698;23.298;2024-02-15T04:55:03;17.12;;;10.05;;
6095;SDS011;25081;42.698;23.298;2024-02-15T04:57:15;17.82;;;10.58;;
6095;SDS011;25081;42.698;23.298;2024-02-15T04:59:24;20.65;;;11.00;;
6095;SDS011;25081;42.698;23.298;2024-02-15T05:01:33;17.32;;;9.98;;
6095;SDS011;25081;42.698;23.298;2024-02-15T05:03:42;16.87;;;9.98;;
6095;SDS011;25081;42.698;23.298;2024-02-15T05:05:51;18.07;;;9.88;;
6095;SDS011;25081;42.698;23.298;2024-02-15T05:08:00;16.15;;;9.88;;
6095;SDS011;25081;42.698;23.298;2024-02-15T05:10:10;16.55;;;10.03;;
6095;SDS011;25081;42.698;23.298;2024-02-15T05:12:22;22.95;;;14.15;;
6095;SDS011;25081;42.698;23.298;2024-02-15T05:14:31;13.83;;;9.45;;
6095;SDS011;25081;42.698;23.298;2024-02-15T05:16:40;15.93;;;9.80;;
6095;SDS011;25081;42.698;23.298;2024-02-15T05:18:49;16.93;;;10.23;;
6095;SDS011;25081;42.698;23.298;2024-02-15T05:20:58;25.43;;;10.88;;
6095;SDS011;25081;42.698;23.298;2024-02-15T05:23:06;17.80;;;10.38;;
6095;SDS011;25081;42.698;23.298;2024-02-15T05:25:15;18.02;;;10.08;;
6095;SDS011;25081;42.698;23.298;2024-02-15T05:27:24;18.82;;;9.85;;
6095;SDS011;25081;42.698;23.298;2024-02-15T05:29:33;14.83;;;9.45;;
6095;SDS011;25081;42.698;23.298;2024-02-15T05:31:42;16.77;;;9.33;;
6095;SDS011;25081;42.698;23.298;2024-02-15T05:33:51;15.95;;;9.88;;
6095;SDS011;25081;42.698;23.298;2024-02-15T05:35:59;15.35;;;10.50;;
6095;SDS011;25081;42.698;23.298;2024-02-15T05:38:08;21.52;;;10.53;;
6095;SDS011;25081;42.698;23.298;2024-02-15T05:40:17;19.17;;;10.13;;
6095;SDS011;25081;42.698;23.298;2024-02-15T05:42:26;13.65;;;8.53;;
6095;SDS011;25081;42.698;23.298;2024-02-15T05:44:35;16.73;;;10.05;;
6095;SDS011;25081;42.698;23.298;2024-02-15T05:46:43;17.73;;;9.58;;
6095;SDS011;25081;42.698;23.298;2024-02-15T05:48:52;19.62;;;9.88;;
6095;SDS011;25081;42.698;23.298;2024-02-15T05:51:01;14.10;;;9.48;;
6095;SDS011;25081;42.698;23.298;2024-02-15T05:53:10;16.02;;;10.05;;
6095;SDS011;25081;42.698;23.298;2024-02-15T05:55:19;15.28;;;9.08;;
6095;SDS011;25081;42.698;23.298;2024-02-15T05:57:27;14.13;;;9.48;;
6095;SDS011;25081;42.698;23.298;2024-02-15T05:59:36;15.75;;;9.75;;
6095;SDS011;25081;42.698;23.298;2024-02-15T06:01:45;18.37;;;9.05;;
6095;SDS011;25081;42.698;23.298;2024-02-15T06:03:54;23.32;;;10.60;;
6095;SDS011;25081;42.698;23.298;2024-02-15T06:06:03;16.65;;;8.30;;
6095;SDS011;25081;42.698;23.298;2024-02-15T06:08:13;22.58;;;11.93;;
6095;SDS011;25081;42.698;23.298;2024-02-15T06:10:22;19.37;;;10.60;;
6095;SDS011;25081;42.698;23.298;2024-02-15T06:12:31;16.67;;;9.65;;
6095;SDS011;25081;42.698;23.298;2024-02-15T06:14:39;18.92;;;10.90;;
6095;SDS011;25081;42.698;23.298;2024-02-15T06:16:48;15.70;;;10.03;;
6095;SDS011;25081;42.698;23.298;2024-02-15T06:18:57;14.85;;;9.15;;
6095;SDS011;25081;42.698;23.298;2024-02-15T06:21:06;16.67;;;11.93;;
6095;SDS011;25081;42.698;23.298;2024-02-15T06:23:15;16.87;;;11.40;;
6095;SDS011;25081;42.698;23.298;2024-02-15T06:25:24;13.80;;;9.55;;
6095;SDS011;25081;42.698;23.298;2024-02-15T06:27:32;16.85;;;10.00;;
6095;SDS011;25081;42.698;23.298;2024-02-15T06:29:41;15.98;;;9.75;;
6095;SDS011;25081;42.698;23.298;2024-02-15T06:32:08;20.20;;;10.98;;
6095;SDS011;25081;42.698;23.298;2024-02-15T06:34:35;31.10;;;15.63;;
6095;SDS011;25081;42.698;23.298;2024-02-15T06:37:02;25.77;;;10.82;;
6095;SDS011;25081;42.698;23.298;2024-02-15T06:39:29;14.95;;;9.75;;
6095;SDS011;25081;42.698;23.298;2024-02-15T06:41:50;17.40;;;8.93;;
6095;SDS011;25081;42.698;23.298;2024-02-15T06:43:58;17.73;;;9.30;;
6095;SDS011;25081;42.698;23.298;2024-02-15T06:46:07;16.87;;;10.30;;
6095;SDS011;25081;42.698;23.298;2024-02-15T06:48:16;16.27;;;10.35;;
6095;SDS011;25081;42.698;23.298;2024-02-15T06:50:25;15.28;;;9.10;;
6095;SDS011;25081;42.698;23.298;2024-02-15T06:52:33;15.13;;;9.43;;
6095;SDS011;25081;42.698;23.298;2024-02-15T06:54:42;14.30;;;8.75;;
6095;SDS011;25081;42.698;23.298;2024-02-15T06:56:51;19.77;;;10.15;;
6095;SDS011;25081;42.698;23.298;2024-02-15T06:59:00;13.10;;;10.00;;
6095;SDS011;25081;42.698;23.298;2024-02-15T07:01:09;15.85;;;9.80;;
6095;SDS011;25081;42.698;23.298;2024-02-15T07:03:18;18.73;;;10.95;;
6095;SDS011;25081;42.698;23.298;2024-02-15T07:05:26;15.95;;;9.70;;
6095;SDS011;25081;42.698;23.298;2024-02-15T07:07:35;15.78;;;9.78;;
6095;SDS011;25081;42.698;23.298;2024-02-15T07:09:44;15.53;;;9.80;;
6095;SDS011;25081;42.698;23.298;2024-02-15T07:11:52;13.75;;;9.45;;
6095;SDS011;25081;42.698;23.298;2024-02-15T07:14:01;15.53;;;8.70;;
6095;SDS011;25081;42.698;23.298;2024-02-15T07:16:10;15.43;;;9.10;;
6095;SDS011;25081;42.698;23.298;2024-02-15T07:18:18;18.25;;;10.85;;
6095;SDS011;25081;42.698;23.298;2024-02-15T07:20:27;19.35;;;9.80;;
6095;SDS011;25081;42.698;23.298;2024-02-15T07:22:36;15.83;;;8.80;;
6095;SDS011;25081;42.698;23.298;2024-02-15T07:24:45;14.35;;;9.20;;
6095;SDS011;25081;42.698;23.298;2024-02-15T07:26:53;15.95;;;9.20;;
6095;SDS011;25081;42.698;23.298;2024-02-15T07:29:02;15.65;;;9.40;;
6095;SDS011;25081;42.698;23.298;2024-02-15T07:31:11;17.17;;;10.28;;
6095;SDS011;25081;42.698;23.298;2024-02-15T07:33:20;15.70;;;8.75;;
6095;SDS011;25081;42.698;23.298;2024-02-15T07:35:29;14.53;;;9.08;;
6095;SDS011;25081;42.698;23.298;2024-02-15T07:37:39;18.35;;;9.03;;
6095;SDS011;25081;42.698;23.298;2024-02-15T07:39:47;16.62;;;8.45;;
6095;SDS011;25081;42.698;23.298;2024-02-15T07:41:56;13.13;;;8.48;;
6095;SDS011;25081;42.698;23.298;2024-02-15T07:44:05;14.13;;;9.20;;
6095;SDS011;25081;42.698;23.298;2024-02-15T07:46:14;10.70;;;7.95;;
6095;SDS011;25081;42.698;23.298;2024-02-15T07:48:22;18.95;;;8.70;;
6095;SDS011;25081;42.698;23.298;2024-02-15T07:50:31;14.40;;;8.40;;
6095;SDS011;25081;42.698;23.298;2024-02-15T07:52:39;12.77;;;8.93;;
6095;SDS011;25081;42.698;23.298;2024-02-15T07:54:48;12.33;;;8.93;;
6095;SDS011;25081;42.698;23.298;2024-02-15T07:56:57;11.07;;;8.50;;
6095;SDS011;25081;42.698;23.298;2024-02-15T07:59:06;11.40;;;9.37;;
6095;SDS011;25081;42.698;23.298;2024-02-15T08:01:14;13.00;;;9.80;;
6095;SDS011;25081;42.698;23.298;2024-02-15T08:03:23;14.40;;;9.57;;
6095;SDS011;25081;42.698;23.298;2024-02-15T08:05:32;13.00;;;9.70;;
6095;SDS011;25081;42.698;23.298;2024-02-15T08:07:41;14.57;;;9.30;;
6095;SDS011;25081;42.698;23.298;2024-02-15T08:09:50;12.10;;;8.80;;
6095;SDS011;25081;42.698;23.298;2024-02-15T08:11:59;11.30;;;9.47;;
6095;SDS011;25081;42.698;23.298;2024-02-15T08:14:07;11.63;;;8.87;;
6095;SDS011;25081;42.698;23.298;2024-02-15T08:16:16;11.40;;;8.50;;
6095;SDS011;25081;42.698;23.298;2024-02-15T08:18:25;10.77;;;8.30;;
6095;SDS011;25081;42.698;23.298;2024-02-15T08:20:34;11.53;;;9.80;;
6095;SDS011;25081;42.698;23.298;2024-02-15T08:22:42;12.57;;;8.43;;
6095;SDS011;25081;42.698;23.298;2024-02-15T08:24:51;13.33;;;10.10;;
6095;SDS011;25081;42.698;23.298;2024-02-15T08:27:00;14.60;;;9.77;;
6095;SDS011;25081;42.698;23.298;2024-02-15T08:29:09;10.60;;;8.70;;
6095;SDS011;25081;42.698;23.298;2024-02-15T08:31:17;12.87;;;7.90;;
6095;SDS011;25081;42.698;23.298;2024-02-15T08:33:26;12.53;;;8.43;;
6095;SDS011;25081;42.698;23.298;2024-02-15T08:35:35;10.80;;;8.70;;
6095;SDS011;25081;42.698;23.298;2024-02-15T08:37:44;11.23;;;7.73;;
6095;SDS011;25081;42.698;23.298;2024-02-15T08:39:53;11.97;;;8.70;;
6095;SDS011;25081;42.698;23.298;2024-02-15T08:42:02;12.97;;;8.10;;
6095;SDS011;25081;42.698;23.298;2024-02-15T08:44:11;12.00;;;8.47;;
6095;SDS011;25081;42.698;23.298;2024-02-15T08:46:20;12.57;;;9.10;;
6095;SDS011;25081;42.698;23.298;2024-02-15T08:48:28;11.23;;;9.10;;
6095;SDS011;25081;42.698;23.298;2024-02-15T08:50:37;12.77;;;8.77;;
6095;SDS011;25081;42.698;23.298;2024-02-15T08:52:46;11.80;;;8.53;;
6095;SDS011;25081;42.698;23.298;2024-02-15T08:54:55;11.33;;;8.00;;
6095;SDS011;25081;42.698;23.298;2024-02-15T08:57:04;12.03;;;8.73;;
6095;SDS011;25081;42.698;23.298;2024-02-15T08:59:13;13.03;;;9.10;;
6095;SDS011;25081;42.698;23.298;2024-02-15T09:01:22;10.90;;;8.63;;
6095;SDS011;25081;42.698;23.298;2024-02-15T09:03:31;13.93;;;8.60;;
6095;SDS011;25081;42.698;23.298;2024-02-15T09:05:39;13.90;;;9.20;;
6095;SDS011;25081;42.698;23.298;2024-02-15T09:07:48;14.20;;;8.23;;
6095;SDS011;25081;42.698;23.298;2024-02-15T09:09:57;10.40;;;7.73;;
6095;SDS011;25081;42.698;23.298;2024-02-15T09:12:06;13.27;;;8.30;;
6095;SDS011;25081;42.698;23.298;2024-02-15T09:14:16;9.27;;;7.80;;
6095;SDS011;25081;42.698;23.298;2024-02-15T09:16:24;10.27;;;8.27;;
6095;SDS011;25081;42.698;23.298;2024-02-15T09:18:33;9.87;;;8.43;;
6095;SDS011;25081;42.698;23.298;2024-02-15T09:20:42;9.07;;;7.43;;
6095;SDS011;25081;42.698;23.298;2024-02-15T09:22:51;8.60;;;7.30;;
6095;SDS011;25081;42.698;23.298;2024-02-15T09:25:00;9.27;;;7.53;;
6095;SDS011;25081;42.698;23.298;2024-02-15T09:27:08;8.53;;;7.63;;
6095;SDS011;25081;42.698;23.298;2024-02-15T09:29:17;10.23;;;6.93;;
6095;SDS011;25081;42.698;23.298;2024-02-15T09:31:27;7.83;;;6.80;;
6095;SDS011;25081;42.698;23.298;2024-02-15T09:33:35;13.30;;;10.77;;
6095;SDS011;25081;42.698;23.298;2024-02-15T09:35:44;10.50;;;7.43;;
6095;SDS011;25081;42.698;23.298;2024-02-15T09:37:53;14.10;;;8.43;;
6095;SDS011;25081;42.698;23.298;2024-02-15T09:40:01;12.80;;;8.43;;
6095;SDS011;25081;42.698;23.298;2024-02-15T09:42:11;9.77;;;7.60;;
6095;SDS011;25081;42.698;23.298;2024-02-15T09:44:19;15.10;;;7.13;;
6095;SDS011;25081;42.698;23.298;2024-02-15T09:46:28;8.13;;;6.90;;
6095;SDS011;25081;42.698;23.298;2024-02-15T09:48:37;8.57;;;6.60;;
6095;SDS011;25081;42.698;23.298;2024-02-15T09:50:46;9.40;;;7.63;;
6095;SDS011;25081;42.698;23.298;2024-02-15T09:52:54;8.20;;;7.27;;
6095;SDS011;25081;42.698;23.298;2024-02-15T09:55:03;9.57;;;7.37;;
6095;SDS011;25081;42.698;23.298;2024-02-15T09:57:12;10.10;;;7.40;;
6095;SDS011;25081;42.698;23.298;2024-02-15T09:59:21;10.33;;;7.53;;
6095;SDS011;25081;42.698;23.298;2024-02-15T10:01:31;8.93;;;6.83;;
6095;SDS011;25081;42.698;23.298;2024-02-15T10:03:40;10.17;;;7.50;;
6095;SDS011;25081;42.698;23.298;2024-02-15T10:05:48;10.00;;;6.43;;
6095;SDS011;25081;42.698;23.298;2024-02-15T10:07:57;9.70;;;6.67;;
6095;SDS011;25081;42.698;23.298;2024-02-15T10:10:17;10.03;;;7.80;;
6095;SDS011;25081;42.698;23.298;2024-02-15T10:12:26;9.17;;;6.50;;
6095;SDS011;25081;42.698;23.298;2024-02-15T10:14:44;9.80;;;7.27;;
6095;SDS011;25081;42.698;23.298;2024-02-15T10:16:48;9.63;;;7.23;;
6095;SDS011;25081;42.698;23.298;2024-02-15T10:19:01;8.00;;;6.60;;
6095;SDS011;25081;42.698;23.298;2024-02-15T10:21:26;10.00;;;8.57;;
6095;SDS011;25081;42.698;23.298;2024-02-15T10:23:35;8.60;;;6.77;;
6095;SDS011;25081;42.698;23.298;2024-02-15T10:25:44;8.63;;;6.57;;
6095;SDS011;25081;42.698;23.298;2024-02-15T10:27:52;8.93;;;6.43;;
6095;SDS011;25081;42.698;23.298;2024-02-15T10:30:02;9.00;;;6.73;;
6095;SDS011;25081;42.698;23.298;2024-02-15T10:32:22;9.10;;;6.17;;
6095;SDS011;25081;42.698;23.298;2024-02-15T10:34:31;7.20;;;6.13;;
6095;SDS011;25081;42.698;23.298;2024-02-15T10:36:40;10.77;;;6.60;;
6095;SDS011;25081;42.698;23.298;2024-02-15T10:38:48;7.87;;;6.77;;
6095;SDS011;25081;42.698;23.298;2024-02-15T10:41:02;9.33;;;7.30;;
6095;SDS011;25081;42.698;23.298;2024-02-15T10:43:12;8.33;;;6.00;;
6095;SDS011;25081;42.698;23.298;2024-02-15T10:45:20;9.63;;;7.40;;
6095;SDS011;25081;42.698;23.298;2024-02-15T10:47:29;9.87;;;6.37;;
6095;SDS011;25081;42.698;23.298;2024-02-15T10:49:38;8.93;;;7.10;;
6095;SDS011;25081;42.698;23.298;2024-02-15T10:51:49;10.43;;;6.70;;
6095;SDS011;25081;42.698;23.298;2024-02-15T10:54:01;8.77;;;6.30;;
6095;SDS011;25081;42.698;23.298;2024-02-15T10:56:09;11.37;;;7.43;;
6095;SDS011;25081;42.698;23.298;2024-02-15T10:58:19;7.80;;;5.90;;
6095;SDS011;25081;42.698;23.298;2024-02-15T11:00:25;9.37;;;7.30;;
6095;SDS011;25081;42.698;23.298;2024-02-15T11:02:36;8.40;;;7.33;;
6095;SDS011;25081;42.698;23.298;2024-02-15T11:04:44;8.00;;;6.80;;
6095;SDS011;25081;42.698;23.298;2024-02-15T11:06:53;7.70;;;6.20;;
6095;SDS011;25081;42.698;23.298;2024-02-15T11:09:01;9.30;;;6.23;;
6095;SDS011;25081;42.698;23.298;2024-02-15T11:11:10;9.43;;;6.23;;
6095;SDS011;25081;42.698;23.298;2024-02-15T11:13:19;13.87;;;6.17;;
6095;SDS011;25081;42.698;23.298;2024-02-15T11:15:43;9.93;;;6.90;;
6095;SDS011;25081;42.698;23.298;2024-02-15T11:17:52;9.43;;;7.03;;
6095;SDS011;25081;42.698;23.298;2024-02-15T11:20:01;11.30;;;6.10;;
6095;SDS011;25081;42.698;23.298;2024-02-15T11:22:10;7.87;;;5.33;;
6095;SDS011;25081;42.698;23.298;2024-02-15T11:24:25;7.73;;;5.80;;
6095;SDS011;25081;42.698;23.298;2024-02-15T11:26:44;8.50;;;6.30;;
6095;SDS011;25081;42.698;23.298;2024-02-15T11:28:55;15.73;;;7.10;;
6095;SDS011;25081;42.698;23.298;2024-02-15T11:31:04;7.90;;;6.50;;
6095;SDS011;25081;42.698;23.298;2024-02-15T11:33:25;13.67;;;7.30;;
6095;SDS011;25081;42.698;23.298;2024-02-15T11:35:34;8.97;;;6.20;;
6095;SDS011;25081;42.698;23.298;2024-02-15T11:37:53;8.60;;;6.23;;
6095;SDS011;25081;42.698;23.298;2024-02-15T11:40:02;9.70;;;6.50;;
6095;SDS011;25081;42.698;23.298;2024-02-15T11:42:27;11.30;;;6.33;;
6095;SDS011;25081;42.698;23.298;2024-02-15T11:44:36;8.27;;;6.13;;
6095;SDS011;25081;42.698;23.298;2024-02-15T11:46:44;8.80;;;5.90;;
6095;SDS011;25081;42.698;23.298;2024-02-15T11:48:53;11.43;;;7.23;;
6095;SDS011;25081;42.698;23.298;2024-02-15T11:51:02;8.20;;;6.17;;
6095;SDS011;25081;42.698;23.298;2024-02-15T11:53:11;9.37;;;6.17;;
6095;SDS011;25081;42.698;23.298;2024-02-15T11:55:20;12.63;;;6.40;;
6095;SDS011;25081;42.698;23.298;2024-02-15T11:57:28;9.47;;;6.50;;
6095;SDS011;25081;42.698;23.298;2024-02-15T11:59:41;11.80;;;7.13;;
6095;SDS011;25081;42.698;23.298;2024-02-15T12:01:50;8.40;;;6.10;;
6095;SDS011;25081;42.698;23.298;2024-02-15T12:04:17;8.10;;;5.30;;
6095;SDS011;25081;42.698;23.298;2024-02-15T12:06:45;10.10;;;6.43;;
6095;SDS011;25081;42.698;23.298;2024-02-15T12:09:11;9.00;;;5.80;;
6095;SDS011;25081;42.698;23.298;2024-02-15T12:11:38;8.93;;;6.03;;
6095;SDS011;25081;42.698;23.298;2024-02-15T12:17:07;10.50;;;6.00;;
6095;SDS011;25081;42.698;23.298;2024-02-15T12:19:33;8.40;;;6.40;;
6095;SDS011;25081;42.698;23.298;2024-02-15T12:21:42;9.90;;;5.90;;
6095;SDS011;25081;42.698;23.298;2024-02-15T12:23:51;10.10;;;6.77;;
6095;SDS011;25081;42.698;23.298;2024-02-15T12:26:00;10.67;;;6.50;;
6095;SDS011;25081;42.698;23.298;2024-02-15T12:28:08;9.10;;;6.73;;
6095;SDS011;25081;42.698;23.298;2024-02-15T12:30:17;12.67;;;7.93;;
6095;SDS011;25081;42.698;23.298;2024-02-15T12:32:26;7.40;;;5.93;;
6095;SDS011;25081;42.698;23.298;2024-02-15T12:34:35;11.40;;;5.50;;
6095;SDS011;25081;42.698;23.298;2024-02-15T12:36:44;8.60;;;6.00;;
6095;SDS011;25081;42.698;23.298;2024-02-15T12:38:59;7.90;;;6.40;;
6095;SDS011;25081;42.698;23.298;2024-02-15T12:41:18;10.10;;;6.90;;
6095;SDS011;25081;42.698;23.298;2024-02-15T12:43:27;9.30;;;6.40;;
6095;SDS011;25081;42.698;23.298;2024-02-15T12:45:36;9.03;;;6.50;;
6095;SDS011;25081;42.698;23.298;2024-02-15T12:47:44;7.30;;;5.60;;
6095;SDS011;25081;42.698;23.298;2024-02-15T12:49:53;8.30;;;6.33;;
6095;SDS011;25081;42.698;23.298;2024-02-15T12:54:41;9.97;;;6.37;;
6095;SDS011;25081;42.698;23.298;2024-02-15T12:56:49;11.13;;;6.40;;
6095;SDS011;25081;42.698;23.298;2024-02-15T12:58:58;11.10;;;6.23;;